createdAt,value
2022-10-14T00:01:24.835Z,2.88
2022-10-14T00:03:54.714Z,2.78
2022-10-14T00:06:29.805Z,2.45
2022-10-14T00:09:05.923Z,2.51
2022-10-14T00:11:36.039Z,2.62
2022-10-14T00:14:10.826Z,2.67
2022-10-14T00:16:43.373Z,2.68
2022-10-14T00:19:12.385Z,2.63
2022-10-14T00:21:44.995Z,2.58
2022-10-14T00:24:17.345Z,2.54
2022-10-14T00:26:46.378Z,2.34
2022-10-14T00:29:19.042Z,2.46
2022-10-14T00:31:47.996Z,2.50
2022-10-14T00:34:16.899Z,2.50
2022-10-14T00:36:44.859Z,2.35
2022-10-14T00:39:16.792Z,2.49
2022-10-14T00:41:45.615Z,2.47
2022-10-14T00:44:13.672Z,2.50
2022-10-14T00:46:48.560Z,2.46
2022-10-14T00:49:26.466Z,2.48
2022-10-14T00:52:18.093Z,2.48
2022-10-14T00:54:54.695Z,2.42
2022-10-14T00:57:23.999Z,2.45
2022-10-14T00:59:56.393Z,2.46
2022-10-14T01:02:24.945Z,2.46
2022-10-14T01:04:53.248Z,2.47
2022-10-14T01:07:39.322Z,2.49
2022-10-14T01:10:28.239Z,2.12
2022-10-14T01:13:31.974Z,2.38
2022-10-14T01:16:11.562Z,2.09
2022-10-14T01:19:21.780Z,2.30
2022-10-14T01:21:56.698Z,2.09
2022-10-14T01:24:43.966Z,2.28
2022-10-14T01:27:39.826Z,2.30
2022-10-14T01:30:33.233Z,2.33
2022-10-14T01:33:06.333Z,2.19
2022-10-14T01:35:47.743Z,2.12
2022-10-14T01:38:43.517Z,2.06
2022-10-14T01:41:33.915Z,1.81
2022-10-14T01:44:10.400Z,1.91
2022-10-14T01:46:45.898Z,1.84
2022-10-14T01:49:25.311Z,1.80
2022-10-14T01:52:02.333Z,1.38
2022-10-14T01:54:36.374Z,1.76
2022-10-14T01:57:16.330Z,1.81
2022-10-14T01:59:46.535Z,1.59
2022-10-14T02:02:15.040Z,1.81
2022-10-14T02:04:43.085Z,1.80
2022-10-14T02:07:40.220Z,1.81
2022-10-14T02:10:16.997Z,1.86
2022-10-14T02:13:07.423Z,1.83
2022-10-14T02:15:59.019Z,1.77
2022-10-14T02:18:41.438Z,1.69
2022-10-14T02:21:26.924Z,1.85
2022-10-14T02:24:05.282Z,1.79
2022-10-14T02:26:35.722Z,1.91
2022-10-14T02:29:06.102Z,1.95
2022-10-14T02:31:39.251Z,1.93
2022-10-14T02:34:12.596Z,1.93
2022-10-14T02:36:43.321Z,1.87
2022-10-14T02:39:15.834Z,1.79
2022-10-14T02:41:44.614Z,1.73
2022-10-14T02:44:14.851Z,1.52
2022-10-14T02:46:47.170Z,1.59
2022-10-14T02:49:17.056Z,1.30
2022-10-14T02:51:45.479Z,1.14
2022-10-14T02:54:13.795Z,1.47
2022-10-14T02:56:43.488Z,1.45
2022-10-14T02:59:11.397Z,1.20
2022-10-14T03:01:40.255Z,1.14
2022-10-14T03:04:10.606Z,1.41
2022-10-14T03:06:38.440Z,1.41
2022-10-14T03:09:07.915Z,1.38
2022-10-14T03:11:40.171Z,1.38
2022-10-14T03:14:12.672Z,1.43
2022-10-14T03:16:40.534Z,1.41
2022-10-14T03:19:08.832Z,1.30
2022-10-14T03:21:45.361Z,1.79
2022-10-14T03:24:19.340Z,1.96
2022-10-14T03:26:51.558Z,2.18
2022-10-14T03:29:25.517Z,2.42
2022-10-14T03:31:59.657Z,2.54
2022-10-14T03:34:50.578Z,2.59
2022-10-14T03:37:24.371Z,2.69
2022-10-14T03:39:55.527Z,2.69
2022-10-14T03:42:23.938Z,2.52
2022-10-14T03:44:52.690Z,3.01
2022-10-14T03:47:28.102Z,3.10
2022-10-14T03:49:56.533Z,2.96
2022-10-14T03:52:33.986Z,2.76
2022-10-14T03:55:08.084Z,3.19
2022-10-14T03:57:36.212Z,3.15
2022-10-14T04:00:07.227Z,3.09
2022-10-14T04:02:44.524Z,3.10
2022-10-14T04:05:34.094Z,3.18
2022-10-14T04:08:09.094Z,3.18
2022-10-14T04:10:38.840Z,3.30
2022-10-14T04:13:08.470Z,3.35
2022-10-14T04:15:39.068Z,3.39
2022-10-14T04:18:20.322Z,3.35
2022-10-14T04:20:50.076Z,3.48
2022-10-14T04:23:21.387Z,3.45
2022-10-14T04:25:54.382Z,3.62
2022-10-14T04:28:23.872Z,3.77
2022-10-14T04:31:08.991Z,3.78
2022-10-14T04:33:50.073Z,3.34
2022-10-14T04:36:24.960Z,3.80
2022-10-14T04:38:53.066Z,3.91
2022-10-14T04:41:20.922Z,3.58
2022-10-14T04:43:50.895Z,3.70
2022-10-14T04:46:41.507Z,4.04
2022-10-14T04:49:10.879Z,4.14
2022-10-14T04:51:47.057Z,4.27
2022-10-14T04:54:24.302Z,4.36
2022-10-14T04:56:55.090Z,4.38
2022-10-14T04:59:23.199Z,4.43
2022-10-14T05:02:09.900Z,4.62
2022-10-14T05:04:47.312Z,4.64
2022-10-14T05:07:16.559Z,4.66
2022-10-14T05:09:49.649Z,4.51
2022-10-14T05:12:25.781Z,4.72
2022-10-14T05:14:59.690Z,4.74
2022-10-14T05:17:37.901Z,4.75
2022-10-14T05:20:07.677Z,4.71
2022-10-14T05:22:38.579Z,4.78
2022-10-14T05:25:07.303Z,4.71
2022-10-14T05:27:35.230Z,4.85
2022-10-14T05:30:05.895Z,4.88
2022-10-14T05:32:38.413Z,4.90
2022-10-14T05:35:08.789Z,4.85
2022-10-14T05:37:39.584Z,4.85
2022-10-14T05:40:09.286Z,4.92
2022-10-14T05:42:38.535Z,4.94
2022-10-14T05:45:07.562Z,4.95
2022-10-14T05:47:39.475Z,4.94
2022-10-14T05:50:15.865Z,5.00
2022-10-14T05:52:46.583Z,4.99
2022-10-14T05:55:29.244Z,4.87
2022-10-14T05:58:00.255Z,4.81
2022-10-14T06:00:34.748Z,5.14
2022-10-14T06:03:11.665Z,5.15
2022-10-14T06:05:41.440Z,4.88
2022-10-14T06:08:09.861Z,5.16
2022-10-14T06:10:39.524Z,5.19
2022-10-14T06:13:07.589Z,5.03
2022-10-14T06:15:38.471Z,5.23
2022-10-14T06:18:07.569Z,5.37
2022-10-14T06:20:35.709Z,5.14
2022-10-14T06:23:04.380Z,5.36
2022-10-14T06:25:32.451Z,5.12
2022-10-14T06:28:06.260Z,5.51
2022-10-14T06:30:34.418Z,5.57
2022-10-14T06:33:02.444Z,5.47
2022-10-14T06:35:30.571Z,5.25
2022-10-14T06:37:58.779Z,5.42
2022-10-14T06:40:26.849Z,5.59
2022-10-14T06:42:54.909Z,5.62
2022-10-14T06:45:24.304Z,5.68
2022-10-14T06:47:52.494Z,5.73
2022-10-14T06:50:20.916Z,5.78
2022-10-14T06:52:48.992Z,5.53
2022-10-14T06:55:17.361Z,5.89
2022-10-14T06:57:45.510Z,5.90
2022-10-14T07:00:15.535Z,5.86
2022-10-14T07:02:44.866Z,5.86
2022-10-14T07:05:14.488Z,5.93
2022-10-14T07:07:43.265Z,6.01
2022-10-14T07:10:11.637Z,6.10
2022-10-14T07:12:39.928Z,6.21
2022-10-14T07:15:09.377Z,6.18
2022-10-14T07:17:38.413Z,6.20
2022-10-14T07:20:07.525Z,6.12
2022-10-14T07:22:38.905Z,6.28
2022-10-14T07:25:07.802Z,6.37
2022-10-14T07:27:37.000Z,6.09
2022-10-14T07:30:07.159Z,6.12
2022-10-14T07:32:37.503Z,6.50
2022-10-14T07:35:06.349Z,5.73
2022-10-14T07:37:34.405Z,6.56
2022-10-14T07:40:02.863Z,6.30
2022-10-14T07:42:31.217Z,6.56
2022-10-14T07:44:59.456Z,6.61
2022-10-14T07:47:27.806Z,6.73
2022-10-14T07:49:57.104Z,6.85
2022-10-14T07:52:25.449Z,6.82
2022-10-14T07:54:53.765Z,6.75
2022-10-14T07:57:24.368Z,6.97
2022-10-14T07:59:52.878Z,7.24
2022-10-14T08:02:21.465Z,7.31
2022-10-14T08:05:04.126Z,7.07
2022-10-14T08:07:42.899Z,7.29
2022-10-14T08:10:11.214Z,7.48
2022-10-14T08:12:40.065Z,7.40
2022-10-14T08:15:08.822Z,7.64
2022-10-14T08:17:36.844Z,7.62
2022-10-14T08:20:05.358Z,7.51
2022-10-14T08:22:33.621Z,7.63
2022-10-14T08:25:01.521Z,7.93
2022-10-14T08:27:29.555Z,7.63
2022-10-14T08:29:57.660Z,7.98
2022-10-14T08:32:25.942Z,7.83
2022-10-14T08:34:56.184Z,8.08
2022-10-14T08:37:24.271Z,8.29
2022-10-14T08:39:53.837Z,7.84
2022-10-14T08:43:02.377Z,8.32
2022-10-14T08:45:39.532Z,8.15
2022-10-14T08:48:20.621Z,8.08
2022-10-14T08:51:00.905Z,8.41
2022-10-14T08:53:38.862Z,8.28
2022-10-14T08:56:10.145Z,8.63
2022-10-14T08:58:41.613Z,8.63
2022-10-14T09:01:25.168Z,8.85
2022-10-14T09:04:06.367Z,8.94
2022-10-14T09:06:40.599Z,8.97
2022-10-14T09:09:43.696Z,8.98
2022-10-14T09:12:20.925Z,9.01
2022-10-14T09:15:12.648Z,8.90
2022-10-14T09:18:10.445Z,9.03
2022-10-14T09:20:41.663Z,8.99
2022-10-14T09:23:24.878Z,9.30
2022-10-14T09:26:17.684Z,9.39
2022-10-14T09:28:46.202Z,9.33
2022-10-14T09:31:15.222Z,9.30
2022-10-14T09:33:45.090Z,9.29
2022-10-14T09:36:22.392Z,9.58
2022-10-14T09:38:53.252Z,9.74
2022-10-14T09:41:30.891Z,9.66
2022-10-14T09:44:26.335Z,9.98
2022-10-14T09:47:09.346Z,10.06
2022-10-14T09:49:46.198Z,10.25
2022-10-14T09:52:26.118Z,9.85
2022-10-14T09:55:03.637Z,10.54
2022-10-14T09:57:33.294Z,10.45
2022-10-14T10:00:06.706Z,10.71
2022-10-14T10:02:47.061Z,10.29
2022-10-14T10:05:32.619Z,10.74
2022-10-14T10:08:14.700Z,10.88
2022-10-14T10:11:02.007Z,10.76
2022-10-14T10:13:45.480Z,11.02
2022-10-14T10:16:19.546Z,11.16
2022-10-14T10:18:48.547Z,11.20
2022-10-14T10:21:30.381Z,11.59
2022-10-14T10:24:03.622Z,11.84
2022-10-14T10:26:34.857Z,11.60
2022-10-14T10:29:05.548Z,11.46
2022-10-14T10:31:46.771Z,11.86
2022-10-14T10:34:59.309Z,11.74
2022-10-14T10:37:38.583Z,12.25
2022-10-14T10:40:25.002Z,12.28
2022-10-14T10:43:20.382Z,12.64
2022-10-14T10:46:07.663Z,13.01
2022-10-14T10:49:06.358Z,13.30
2022-10-14T10:52:21.991Z,13.57
2022-10-14T10:55:04.423Z,13.99
2022-10-14T10:57:37.046Z,13.99
2022-10-14T11:00:21.214Z,14.28
2022-10-14T11:03:10.888Z,14.36
2022-10-14T11:05:57.245Z,14.77
2022-10-14T11:09:12.011Z,14.78
2022-10-14T11:12:13.380Z,14.61
2022-10-14T11:15:24.079Z,14.83
2022-10-14T11:18:46.565Z,14.87
2022-10-14T11:21:39.965Z,15.43
2022-10-14T11:24:17.659Z,16.06
2022-10-14T11:27:24.845Z,15.97
2022-10-14T11:30:19.245Z,15.84
2022-10-14T11:33:09.843Z,15.92
2022-10-14T11:36:31.736Z,15.98
2022-10-14T11:39:42.523Z,16.25
2022-10-14T11:42:39.900Z,16.22
2022-10-14T11:45:28.818Z,16.45
2022-10-14T11:48:12.550Z,15.85
2022-10-14T11:50:49.531Z,16.26
2022-10-14T11:53:25.187Z,16.57
2022-10-14T11:56:39.787Z,16.26
2022-10-14T11:59:37.078Z,17.14
2022-10-14T12:02:56.273Z,17.21
2022-10-14T12:05:51.434Z,16.95
2022-10-14T12:08:40.670Z,16.55
2022-10-14T12:11:31.391Z,16.24
2022-10-14T12:14:42.769Z,16.67
2022-10-14T12:17:46.045Z,16.37
2022-10-14T12:20:38.349Z,16.40
2022-10-14T12:23:12.781Z,16.52
2022-10-14T12:26:01.498Z,16.08
2022-10-14T12:28:37.693Z,16.58
2022-10-14T12:31:42.130Z,16.29
2022-10-14T12:34:21.632Z,16.44
2022-10-14T12:36:50.890Z,16.38
2022-10-14T12:39:18.909Z,15.78
2022-10-14T12:41:59.718Z,15.96
2022-10-14T12:44:52.196Z,15.77
2022-10-14T12:47:36.353Z,15.74
2022-10-14T12:50:16.427Z,16.19
2022-10-14T12:52:47.911Z,16.75
2022-10-14T12:55:20.286Z,17.22
2022-10-14T12:58:04.709Z,16.90
2022-10-14T13:00:40.921Z,16.91
2022-10-14T13:03:25.389Z,16.10
2022-10-14T13:06:14.947Z,15.61
2022-10-14T13:08:43.184Z,15.90
2022-10-14T13:11:28.292Z,16.05
2022-10-14T13:14:03.042Z,15.96
2022-10-14T13:16:34.000Z,16.21
2022-10-14T13:19:05.110Z,15.63
2022-10-14T13:21:36.407Z,15.70
2022-10-14T13:24:32.349Z,15.37
2022-10-14T13:27:56.359Z,15.17
2022-10-14T13:30:49.619Z,15.37
2022-10-14T13:33:40.757Z,15.27
2022-10-14T13:36:22.466Z,15.38
2022-10-14T13:39:00.634Z,15.19
2022-10-14T13:41:31.463Z,15.54
2022-10-14T13:44:01.161Z,15.58
2022-10-14T13:46:41.246Z,15.67
2022-10-14T13:49:18.740Z,15.98
2022-10-14T13:51:59.824Z,15.85
2022-10-14T13:54:33.061Z,15.64
2022-10-14T13:57:42.801Z,15.84
2022-10-14T14:00:38.484Z,15.32
2022-10-14T14:02:55.896Z,15.51
2022-10-14T14:05:36.234Z,15.71
2022-10-14T14:08:35.354Z,15.42
2022-10-14T14:11:16.048Z,15.61
2022-10-14T14:14:08.614Z,15.57
2022-10-14T14:19:28.773Z,15.49
2022-10-14T14:22:30.628Z,15.21
2022-10-14T14:25:40.251Z,15.15
2022-10-14T14:28:18.580Z,15.05
2022-10-14T14:30:55.132Z,15.35
2022-10-14T14:33:35.419Z,15.22
2022-10-14T14:36:18.086Z,15.13
2022-10-14T14:39:01.246Z,15.29
2022-10-14T14:41:31.994Z,15.20
2022-10-14T14:44:26.131Z,15.16
2022-10-14T14:47:00.725Z,14.81
2022-10-14T14:49:40.032Z,15.23
2022-10-14T14:52:11.895Z,14.88
2022-10-14T14:55:18.720Z,14.87
2022-10-14T14:57:47.145Z,14.46
2022-10-14T15:00:21.274Z,14.70
2022-10-14T15:02:51.360Z,14.56
2022-10-14T15:05:20.592Z,14.28
2022-10-14T15:07:50.207Z,14.19
2022-10-14T15:10:28.746Z,14.18
2022-10-14T15:13:02.556Z,14.04
2022-10-14T15:15:35.031Z,14.04
2022-10-14T15:18:28.269Z,13.84
2022-10-14T15:21:16.842Z,13.68
2022-10-14T15:23:50.858Z,13.48
2022-10-14T15:26:36.413Z,13.08
2022-10-14T15:32:02.095Z,13.22
2022-10-14T15:34:30.193Z,12.90
2022-10-14T15:36:58.325Z,12.99
2022-10-14T15:39:26.549Z,12.85
2022-10-14T15:41:54.676Z,12.72
2022-10-14T15:44:22.553Z,12.59
2022-10-14T15:47:10.031Z,12.42
2022-10-14T15:49:45.973Z,12.24
2022-10-14T15:52:19.447Z,11.89
2022-10-14T15:54:50.925Z,12.03
2022-10-14T15:57:18.954Z,11.91
2022-10-14T15:59:52.194Z,11.79
2022-10-14T16:02:33.568Z,11.70
2022-10-14T16:07:50.515Z,11.36
2022-10-14T16:10:22.175Z,11.37
2022-10-14T16:12:51.195Z,11.26
2022-10-14T16:15:42.430Z,11.03
2022-10-14T16:18:10.339Z,11.00
2022-10-14T16:20:38.894Z,10.98
2022-10-14T16:23:08.691Z,10.88
2022-10-14T16:25:44.640Z,10.55
2022-10-14T16:28:14.050Z,10.52
2022-10-14T16:30:49.476Z,10.75
2022-10-14T16:33:19.467Z,10.43
2022-10-14T16:35:54.218Z,10.63
2022-10-14T16:38:24.495Z,10.56
2022-10-14T16:41:02.499Z,10.52
2022-10-14T16:43:30.803Z,10.47
2022-10-14T16:46:03.700Z,10.14
2022-10-14T16:48:34.791Z,10.31
2022-10-14T16:51:03.536Z,10.08
2022-10-14T16:53:41.207Z,10.29
2022-10-14T16:56:39.965Z,10.21
2022-10-14T16:59:08.426Z,10.20
2022-10-14T17:01:36.656Z,9.95
2022-10-14T17:04:09.366Z,10.00
2022-10-14T17:06:37.491Z,10.08
2022-10-14T17:09:05.712Z,10.03
2022-10-14T17:11:34.731Z,10.02
2022-10-14T17:14:04.623Z,10.16
2022-10-14T17:16:33.039Z,10.33
2022-10-14T17:19:01.682Z,10.36
2022-10-14T17:21:29.864Z,10.34
2022-10-14T17:24:02.651Z,10.12
2022-10-14T17:26:33.338Z,10.09
2022-10-14T17:29:01.945Z,10.28
2022-10-14T17:31:30.934Z,9.96
2022-10-14T17:34:00.321Z,10.12
2022-10-14T17:36:30.826Z,10.12
2022-10-14T17:39:00.425Z,9.85
2022-10-14T17:41:30.675Z,10.00
2022-10-14T17:44:01.610Z,9.73
2022-10-14T17:46:31.486Z,9.93
2022-10-14T17:49:04.282Z,9.77
2022-10-14T17:51:33.305Z,9.94
2022-10-14T17:54:05.491Z,9.85
2022-10-14T17:56:36.583Z,9.60
2022-10-14T17:59:10.594Z,9.83
2022-10-14T18:04:27.096Z,9.73
2022-10-14T18:06:55.043Z,9.56
2022-10-14T18:09:24.121Z,9.52
2022-10-14T18:12:09.207Z,9.56
2022-10-14T18:14:40.869Z,9.64
2022-10-14T18:17:12.975Z,9.63
2022-10-14T18:19:42.359Z,9.38
2022-10-14T18:22:11.479Z,9.44
2022-10-14T18:24:40.138Z,9.43
2022-10-14T18:27:08.305Z,9.45
2022-10-14T18:29:36.437Z,9.23
2022-10-14T18:32:06.046Z,9.51
2022-10-14T18:34:34.324Z,9.46
2022-10-14T18:37:02.253Z,9.37
2022-10-14T18:39:30.474Z,9.29
2022-10-14T18:41:58.569Z,9.56
2022-10-14T18:44:26.444Z,9.58
2022-10-14T18:46:54.737Z,9.60
2022-10-14T18:49:25.188Z,9.13
2022-10-14T18:51:55.363Z,9.58
2022-10-14T18:54:26.796Z,9.27
2022-10-14T18:56:55.896Z,9.59
2022-10-14T18:59:24.532Z,9.32
2022-10-14T19:01:54.172Z,9.55
2022-10-14T19:04:26.867Z,9.31
2022-10-14T19:06:54.993Z,9.32
2022-10-14T19:09:29.573Z,9.35
2022-10-14T19:12:21.286Z,8.98
2022-10-14T19:14:49.589Z,9.02
2022-10-14T19:17:17.875Z,9.16
2022-10-14T19:19:45.965Z,8.90
2022-10-14T19:22:14.998Z,8.45
2022-10-14T19:24:43.315Z,8.86
2022-10-14T19:27:11.233Z,8.90
2022-10-14T19:29:39.277Z,9.01
2022-10-14T19:32:07.238Z,8.97
2022-10-14T19:34:35.128Z,8.94
2022-10-14T19:37:03.363Z,8.64
2022-10-14T19:39:31.443Z,8.39
2022-10-14T19:41:59.697Z,8.43
2022-10-14T19:44:27.881Z,8.75
2022-10-14T19:46:56.094Z,8.65
2022-10-14T19:49:24.006Z,8.64
2022-10-14T19:51:52.174Z,8.58
2022-10-14T19:54:20.428Z,8.50
2022-10-14T19:56:48.538Z,8.65
2022-10-14T19:59:17.002Z,8.72
2022-10-14T20:01:45.392Z,8.36
2022-10-14T20:04:13.827Z,8.71
2022-10-14T20:06:43.142Z,8.79
2022-10-14T20:09:14.953Z,9.00
2022-10-14T20:11:43.449Z,8.90
2022-10-14T20:14:11.341Z,9.07
2022-10-14T20:16:39.393Z,9.34
2022-10-14T20:19:07.344Z,9.46
2022-10-14T20:21:35.336Z,9.45
2022-10-14T20:24:03.528Z,9.59
2022-10-14T20:26:33.303Z,9.58
2022-10-14T20:29:01.350Z,9.67
2022-10-14T20:31:29.636Z,9.70
2022-10-14T20:33:57.917Z,9.73
2022-10-14T20:36:25.965Z,9.78
2022-10-14T20:38:54.222Z,9.83
2022-10-14T20:41:27.352Z,9.82
2022-10-14T20:43:56.424Z,9.78
2022-10-14T20:46:25.249Z,9.86
2022-10-14T20:48:58.370Z,9.56
2022-10-14T20:51:26.627Z,9.75
2022-10-14T20:54:01.727Z,9.52
2022-10-14T20:56:34.431Z,9.59
2022-10-14T20:59:07.584Z,10.09
2022-10-14T21:01:37.988Z,9.51
2022-10-14T21:04:07.858Z,10.14
2022-10-14T21:06:36.532Z,10.18
2022-10-14T21:09:05.323Z,10.02
2022-10-14T21:11:33.322Z,10.17
2022-10-14T21:14:01.782Z,10.20
2022-10-14T21:16:33.826Z,9.75
2022-10-14T21:19:07.622Z,10.21
2022-10-14T21:21:43.185Z,10.16
2022-10-14T21:24:18.553Z,10.01
2022-10-14T21:26:49.484Z,10.24
2022-10-14T21:29:21.766Z,10.24
2022-10-14T21:31:50.411Z,9.99
2022-10-14T21:34:18.547Z,10.25
2022-10-14T21:36:49.855Z,10.28
2022-10-14T21:39:18.600Z,10.03
2022-10-14T21:41:46.621Z,9.83
2022-10-14T21:44:22.260Z,10.30
2022-10-14T21:46:50.310Z,10.31
2022-10-14T21:49:18.563Z,10.28
2022-10-14T21:51:46.887Z,10.31
2022-10-14T21:54:15.241Z,10.28
2022-10-14T21:56:43.196Z,10.22
2022-10-14T21:59:12.655Z,10.24
2022-10-14T22:01:42.307Z,10.15
2022-10-14T22:04:14.059Z,10.18
2022-10-14T22:06:42.177Z,10.17
2022-10-14T22:09:10.616Z,10.11
2022-10-14T22:11:41.442Z,10.13
2022-10-14T22:14:17.511Z,9.83
2022-10-14T22:16:47.794Z,9.80
2022-10-14T22:19:16.011Z,10.03
2022-10-14T22:21:46.505Z,10.01
2022-10-14T22:24:14.990Z,9.95
2022-10-14T22:26:43.011Z,9.92
2022-10-14T22:29:16.922Z,9.96
2022-10-14T22:31:46.393Z,9.94
2022-10-14T22:34:17.050Z,9.93
2022-10-14T22:36:46.089Z,9.86
2022-10-14T22:39:16.871Z,9.77
2022-10-14T22:41:44.827Z,9.72
2022-10-14T22:44:12.985Z,9.66
2022-10-14T22:46:41.318Z,9.58
2022-10-14T22:49:09.363Z,9.54
2022-10-14T22:51:43.277Z,9.19
2022-10-14T22:54:11.903Z,9.33
2022-10-14T22:56:40.335Z,9.29
2022-10-14T22:59:11.741Z,9.34
2022-10-14T23:01:42.133Z,9.26
2022-10-14T23:04:11.656Z,9.03
2022-10-14T23:06:40.790Z,9.23
2022-10-14T23:09:08.746Z,9.11
2022-10-14T23:11:36.777Z,8.70
2022-10-14T23:14:07.204Z,8.87
2022-10-14T23:16:36.450Z,9.12
2022-10-14T23:19:05.015Z,9.00
2022-10-14T23:21:37.198Z,8.95
2022-10-14T23:24:10.680Z,8.88
2022-10-14T23:26:39.353Z,8.97
2022-10-14T23:29:11.703Z,8.95
2022-10-14T23:31:41.681Z,8.79
2022-10-14T23:34:14.536Z,9.02
2022-10-14T23:36:43.118Z,9.05
2022-10-14T23:39:11.263Z,8.72
2022-10-14T23:41:39.506Z,9.09
2022-10-14T23:44:07.532Z,9.06
2022-10-14T23:46:35.382Z,9.00
2022-10-14T23:49:24.939Z,8.72
2022-10-14T23:51:51.267Z,8.59
2022-10-14T23:54:19.942Z,8.78
2022-10-14T23:56:47.924Z,8.89
2022-10-14T23:59:16.027Z,8.84
